createdAt,value
2023-01-02T00:00:28.232Z,10.95
2023-01-02T00:02:54.775Z,7.43
2023-01-02T00:05:21.424Z,10.80
2023-01-02T00:07:47.852Z,6.15
2023-01-02T00:10:14.372Z,8.82
2023-01-02T00:12:40.972Z,13.25
2023-01-02T00:15:07.732Z,11.13
2023-01-02T00:17:34.253Z,8.00
2023-01-02T00:20:00.692Z,5.72
2023-01-02T00:22:27.081Z,12.20
2023-01-02T00:24:53.451Z,8.43
2023-01-02T00:27:19.872Z,10.57
2023-01-02T00:29:46.278Z,7.97
2023-01-02T00:32:12.784Z,12.50
2023-01-02T00:34:39.192Z,8.90
2023-01-02T00:37:05.591Z,10.73
2023-01-02T00:39:32.140Z,15.00
2023-01-02T00:41:58.524Z,6.32
2023-01-02T00:44:24.879Z,5.95
2023-01-02T00:46:51.349Z,10.10
2023-01-02T00:49:17.861Z,8.30
2023-01-02T00:51:44.288Z,8.25
2023-01-02T00:54:10.866Z,12.10
2023-01-02T00:56:37.326Z,7.18
2023-01-02T00:59:03.765Z,5.40
2023-01-02T01:01:30.474Z,8.25
2023-01-02T01:03:57.083Z,8.70
2023-01-02T01:06:23.591Z,9.68
2023-01-02T01:08:50.089Z,11.20
2023-01-02T01:11:17.674Z,7.85
2023-01-02T01:13:45.182Z,6.78
2023-01-02T01:16:17.134Z,10.52
2023-01-02T01:18:44.276Z,8.30
2023-01-02T01:21:13.869Z,10.52
2023-01-02T01:23:40.389Z,7.45
2023-01-02T01:26:12.096Z,14.98
2023-01-02T01:28:40.333Z,7.40
2023-01-02T01:31:10.261Z,5.80
2023-01-02T01:33:37.576Z,8.68
2023-01-02T01:36:08.304Z,12.50
2023-01-02T01:38:35.160Z,8.38
2023-01-02T01:41:02.841Z,6.72
2023-01-02T01:43:44.646Z,7.97
2023-01-02T01:46:18.121Z,9.52
2023-01-02T01:48:45.619Z,10.98
2023-01-02T01:51:13.123Z,13.40
2023-01-02T01:53:40.581Z,6.05
2023-01-02T01:56:10.621Z,9.35
2023-01-02T01:58:43.005Z,15.55
2023-01-02T02:01:12.860Z,8.63
2023-01-02T02:03:42.371Z,12.52
2023-01-02T02:06:10.687Z,12.35
2023-01-02T02:08:47.992Z,6.78
2023-01-02T02:11:14.529Z,11.63
2023-01-02T02:13:42.060Z,13.38
2023-01-02T02:16:25.793Z,17.60
2023-01-02T02:19:01.944Z,11.95
2023-01-02T02:21:49.826Z,13.20
2023-01-02T02:24:34.757Z,9.20
2023-01-02T02:27:35.474Z,16.30
2023-01-02T02:30:08.007Z,9.00
2023-01-02T02:32:52.224Z,11.35
2023-01-02T02:35:49.382Z,12.57
2023-01-02T02:39:01.311Z,5.15
2023-01-02T02:41:38.585Z,11.43
2023-01-02T02:44:11.966Z,8.20
2023-01-02T02:46:46.873Z,6.97
2023-01-02T02:49:31.523Z,7.05
2023-01-02T02:51:58.000Z,8.23
2023-01-02T02:54:40.437Z,9.80
2023-01-02T02:57:08.286Z,6.57
2023-01-02T02:59:36.876Z,10.70
2023-01-02T03:02:05.195Z,12.13
2023-01-02T03:04:32.114Z,5.78
2023-01-02T03:07:07.305Z,8.27
2023-01-02T03:12:00.017Z,8.50
2023-01-02T03:14:47.905Z,11.50
2023-01-02T03:17:54.031Z,9.05
2023-01-02T03:20:25.223Z,6.97
2023-01-02T03:22:58.169Z,12.60
2023-01-02T03:25:24.936Z,12.68
2023-01-02T03:27:56.534Z,4.65
2023-01-02T03:30:25.363Z,11.60
2023-01-02T03:33:00.153Z,14.38
2023-01-02T03:35:36.181Z,9.43
2023-01-02T03:38:06.485Z,7.82
2023-01-02T03:40:39.340Z,9.55
2023-01-02T03:43:10.873Z,11.77
2023-01-02T03:45:44.090Z,12.27
2023-01-02T03:48:23.723Z,12.23
2023-01-02T03:50:55.862Z,10.95
2023-01-02T03:53:23.080Z,7.57
2023-01-02T03:56:17.528Z,15.00
2023-01-02T03:58:43.866Z,12.57
2023-01-02T04:01:21.812Z,9.20
2023-01-02T04:03:57.581Z,11.13
2023-01-02T04:06:31.777Z,10.20
2023-01-02T04:09:14.775Z,11.10
2023-01-02T04:11:45.309Z,9.07
2023-01-02T04:14:20.169Z,7.68
2023-01-02T04:16:49.660Z,5.72
2023-01-02T04:19:24.264Z,11.60
2023-01-02T04:21:53.889Z,6.28
2023-01-02T04:24:28.037Z,8.35
2023-01-02T04:27:03.149Z,16.25
2023-01-02T04:32:03.874Z,8.27
2023-01-02T04:34:35.489Z,8.05
2023-01-02T04:37:02.160Z,10.73
2023-01-02T04:39:29.298Z,11.32
2023-01-02T04:41:55.909Z,12.23
2023-01-02T04:44:22.545Z,8.90
2023-01-02T04:46:49.088Z,9.68
2023-01-02T04:49:15.562Z,6.63
2023-01-02T04:51:41.968Z,6.78
2023-01-02T04:54:11.320Z,7.95
2023-01-02T04:56:38.101Z,15.73
2023-01-02T04:59:04.541Z,11.70
2023-01-02T05:01:31.196Z,9.45
2023-01-02T05:03:57.988Z,6.55
2023-01-02T05:06:25.729Z,9.52
2023-01-02T05:08:52.350Z,10.70
2023-01-02T05:11:20.946Z,12.93
2023-01-02T05:13:47.461Z,10.00
2023-01-02T05:16:14.128Z,7.68
2023-01-02T05:18:40.883Z,10.50
2023-01-02T05:21:29.070Z,9.50
2023-01-02T05:23:57.251Z,7.35
2023-01-02T05:26:23.735Z,13.85
2023-01-02T05:28:53.002Z,11.02
2023-01-02T05:31:20.012Z,10.18
2023-01-02T05:33:52.490Z,9.57
2023-01-02T05:36:19.830Z,5.18
2023-01-02T05:38:46.349Z,8.90
2023-01-02T05:41:13.103Z,4.65
2023-01-02T05:43:39.691Z,6.53
2023-01-02T05:46:11.064Z,10.40
2023-01-02T05:48:38.424Z,7.88
2023-01-02T05:51:06.913Z,17.92
2023-01-02T05:53:33.736Z,8.05
2023-01-02T05:56:13.873Z,12.70
2023-01-02T05:58:42.424Z,10.95
2023-01-02T06:01:14.937Z,10.65
2023-01-02T06:03:48.638Z,7.10
2023-01-02T06:06:17.031Z,12.00
2023-01-02T06:08:44.012Z,11.35
2023-01-02T06:11:10.848Z,12.60
2023-01-02T06:13:38.778Z,3.75
2023-01-02T06:16:07.465Z,9.27
2023-01-02T06:18:35.212Z,9.48
2023-01-02T06:21:03.642Z,8.45
2023-01-02T06:23:30.182Z,12.23
2023-01-02T06:26:05.468Z,9.27
2023-01-02T06:28:31.939Z,11.65
2023-01-02T06:31:06.875Z,12.55
2023-01-02T06:33:33.400Z,13.30
2023-01-02T06:36:05.056Z,11.27
2023-01-02T06:38:31.877Z,7.15
2023-01-02T06:41:00.107Z,11.88
2023-01-02T06:43:28.170Z,9.75
2023-01-02T06:46:00.771Z,9.10
2023-01-02T06:48:27.770Z,11.32
2023-01-02T06:50:54.230Z,8.50
2023-01-02T06:53:20.898Z,11.38
2023-01-02T06:55:56.727Z,8.48
2023-01-02T06:58:24.123Z,9.73
2023-01-02T07:00:51.063Z,10.80
2023-01-02T07:03:18.390Z,14.13
2023-01-02T07:05:45.229Z,13.18
2023-01-02T07:08:12.802Z,9.13
2023-01-02T07:10:39.696Z,11.82
2023-01-02T07:13:06.134Z,12.85
2023-01-02T07:15:33.516Z,10.13
2023-01-02T07:18:00.381Z,7.88
2023-01-02T07:20:26.804Z,16.30
2023-01-02T07:22:54.500Z,12.35
2023-01-02T07:25:21.854Z,13.70
2023-01-02T07:27:48.652Z,18.27
2023-01-02T07:30:15.508Z,10.02
2023-01-02T07:32:43.224Z,12.93
2023-01-02T07:35:11.072Z,8.63
2023-01-02T07:37:37.624Z,6.13
2023-01-02T07:40:05.032Z,7.90
2023-01-02T07:42:31.667Z,8.95
2023-01-02T07:44:58.078Z,13.10
2023-01-02T07:47:24.559Z,5.35
2023-01-02T07:49:51.139Z,12.40
2023-01-02T07:52:17.761Z,9.23
2023-01-02T07:54:44.362Z,8.25
2023-01-02T07:57:10.910Z,9.75
2023-01-02T07:59:37.487Z,12.30
2023-01-02T08:02:04.058Z,10.27
2023-01-02T08:04:30.576Z,14.55
2023-01-02T08:06:57.143Z,11.98
2023-01-02T08:09:23.735Z,15.00
2023-01-02T08:11:50.345Z,16.25
2023-01-02T08:14:23.270Z,9.25
2023-01-02T08:16:50.407Z,6.63
2023-01-02T08:19:17.074Z,7.88
2023-01-02T08:21:43.543Z,9.48
2023-01-02T08:24:10.175Z,9.73
2023-01-02T08:26:36.765Z,10.55
2023-01-02T08:29:03.289Z,11.93
2023-01-02T08:31:29.824Z,10.90
2023-01-02T08:33:56.525Z,7.00
2023-01-02T08:36:23.183Z,7.32
2023-01-02T08:38:49.709Z,10.20
2023-01-02T08:41:39.763Z,11.07
2023-01-02T08:44:06.645Z,11.55
2023-01-02T08:46:42.032Z,8.75
2023-01-02T08:49:09.780Z,7.47
2023-01-02T08:51:37.317Z,6.32
2023-01-02T08:54:03.791Z,6.63
2023-01-02T08:56:32.128Z,8.82
2023-01-02T08:59:10.397Z,6.60
2023-01-02T09:01:38.266Z,5.57
2023-01-02T09:04:11.994Z,6.75
2023-01-02T09:06:39.600Z,13.07
2023-01-02T09:09:11.377Z,8.80
2023-01-02T09:11:43.173Z,5.72
2023-01-02T09:14:09.649Z,9.82
2023-01-02T09:16:36.119Z,9.07
2023-01-02T09:19:03.872Z,9.23
2023-01-02T09:21:30.700Z,5.13
2023-01-02T09:23:57.435Z,8.23
2023-01-02T09:26:24.035Z,6.40
2023-01-02T09:28:50.866Z,8.38
2023-01-02T09:31:18.594Z,5.45
2023-01-02T09:33:47.046Z,6.43
2023-01-02T09:36:18.662Z,5.57
2023-01-02T09:39:00.105Z,4.53
2023-01-02T09:41:32.658Z,6.93
2023-01-02T09:44:04.900Z,9.25
2023-01-02T09:46:48.455Z,11.02
2023-01-02T09:49:21.589Z,6.72
2023-01-02T09:51:48.392Z,8.20
2023-01-02T09:54:23.664Z,5.05
2023-01-02T09:57:10.293Z,5.80
2023-01-02T09:59:49.370Z,7.85
2023-01-02T10:02:22.009Z,4.38
2023-01-02T10:04:51.479Z,7.30
2023-01-02T10:07:32.935Z,3.85
2023-01-02T10:10:18.900Z,4.30
2023-01-02T10:12:51.080Z,3.72
2023-01-02T10:15:24.839Z,4.97
2023-01-02T10:17:58.300Z,11.20
2023-01-02T10:20:30.335Z,10.65
2023-01-02T10:23:23.185Z,10.40
2023-01-02T10:25:53.319Z,7.95
2023-01-02T10:28:32.458Z,10.68
2023-01-02T10:31:28.999Z,10.52
2023-01-02T10:34:03.774Z,4.63
2023-01-02T10:36:35.958Z,7.30
2023-01-02T10:39:05.918Z,7.22
2023-01-02T10:41:35.879Z,4.30
2023-01-02T10:44:05.617Z,5.05
2023-01-02T10:46:35.755Z,6.05
2023-01-02T10:49:04.932Z,5.68
2023-01-02T10:51:32.231Z,5.75
2023-01-02T10:54:09.909Z,5.07
2023-01-02T10:56:39.577Z,4.22
2023-01-02T10:59:35.263Z,7.55
2023-01-02T11:02:04.212Z,8.40
2023-01-02T11:04:31.099Z,4.60
2023-01-02T11:07:00.665Z,4.78
2023-01-02T11:09:28.859Z,6.30
2023-01-02T11:12:08.009Z,3.60
2023-01-02T11:14:36.592Z,2.67
2023-01-02T11:17:06.984Z,3.30
2023-01-02T11:19:43.774Z,5.10
2023-01-02T11:22:12.791Z,6.55
2023-01-02T11:25:00.706Z,5.13
2023-01-02T11:27:35.966Z,3.38
2023-01-02T11:30:04.488Z,2.15
2023-01-02T11:32:39.967Z,5.55
2023-01-02T11:35:38.460Z,4.25
2023-01-02T11:38:05.263Z,4.40
2023-01-02T11:40:32.241Z,5.43
2023-01-02T11:43:24.928Z,6.07
2023-01-02T11:45:53.063Z,4.70
2023-01-02T11:48:23.712Z,5.97
2023-01-02T11:50:50.920Z,3.35
2023-01-02T11:53:21.402Z,5.50
2023-01-02T11:55:59.471Z,5.05
2023-01-02T11:58:37.354Z,3.38
2023-01-02T12:01:18.109Z,6.40
2023-01-02T12:03:45.155Z,5.05
2023-01-02T12:06:22.123Z,5.03
2023-01-02T12:09:03.997Z,3.28
2023-01-02T12:11:41.501Z,6.63
2023-01-02T12:14:08.830Z,2.67
2023-01-02T12:16:42.619Z,5.57
2023-01-02T12:19:48.008Z,4.30
2023-01-02T12:22:35.974Z,2.30
2023-01-02T12:25:33.365Z,5.07
2023-01-02T12:28:25.800Z,3.90
2023-01-02T12:31:27.975Z,6.28
2023-01-02T12:34:04.446Z,4.90
2023-01-02T12:36:51.736Z,9.40
2023-01-02T12:39:39.138Z,7.45
2023-01-02T12:42:39.799Z,6.60
2023-01-02T12:45:18.068Z,5.35
2023-01-02T12:48:06.143Z,6.85
2023-01-02T12:50:46.913Z,2.92
2023-01-02T12:53:27.237Z,3.47
2023-01-02T12:56:20.429Z,3.13
2023-01-02T12:59:19.997Z,3.53
2023-01-02T13:01:54.929Z,5.07
2023-01-02T13:04:24.025Z,6.57
2023-01-02T13:07:17.192Z,3.65
2023-01-02T13:09:45.584Z,4.25
2023-01-02T13:12:25.495Z,6.43
2023-01-02T13:15:01.792Z,2.45
2023-01-02T13:17:43.185Z,4.00
2023-01-02T13:20:34.460Z,2.72
2023-01-02T13:23:31.621Z,6.20
2023-01-02T13:26:06.829Z,2.95
2023-01-02T13:34:14.582Z,2.92
2023-01-02T13:36:45.992Z,1.38
2023-01-02T13:39:26.003Z,3.15
2023-01-02T13:42:20.322Z,3.28
2023-01-02T13:45:11.242Z,2.47
2023-01-02T13:47:39.061Z,1.50
2023-01-02T13:50:18.160Z,1.80
2023-01-02T13:53:01.330Z,2.83
2023-01-02T13:55:31.704Z,1.75
2023-01-02T13:58:17.762Z,2.45
2023-01-02T14:00:55.055Z,1.67
2023-01-02T14:03:22.678Z,1.75
2023-01-02T14:06:30.583Z,3.80
2023-01-02T14:09:05.879Z,2.72
2023-01-02T14:11:55.266Z,3.70
2023-01-02T14:14:44.720Z,2.97
2023-01-02T14:17:42.366Z,3.88
2023-01-02T14:20:29.831Z,3.15
2023-01-02T14:23:00.813Z,3.80
2023-01-02T14:25:28.279Z,2.78
2023-01-02T14:28:06.003Z,4.40
2023-01-02T14:30:37.896Z,3.85
2023-01-02T14:33:08.076Z,3.25
2023-01-02T14:35:38.829Z,3.97
2023-01-02T14:38:20.367Z,4.25
2023-01-02T14:40:47.733Z,3.58
2023-01-02T14:43:32.800Z,4.95
2023-01-02T14:46:04.995Z,4.32
2023-01-02T14:48:48.447Z,3.22
2023-01-02T14:51:29.613Z,4.20
2023-01-02T14:54:00.113Z,3.20
2023-01-02T14:56:41.490Z,4.13
2023-01-02T14:59:16.492Z,5.30
2023-01-02T15:01:47.960Z,2.67
2023-01-02T15:04:44.175Z,6.05
2023-01-02T15:07:23.903Z,2.92
2023-01-02T15:09:58.743Z,3.35
2023-01-02T15:12:46.922Z,3.92
2023-01-02T15:15:18.793Z,3.50
2023-01-02T15:17:48.003Z,5.90
2023-01-02T15:20:21.437Z,4.82
2023-01-02T15:22:48.006Z,5.43
2023-01-02T15:25:33.409Z,5.68
2023-01-02T15:27:59.803Z,6.97
2023-01-02T15:30:34.448Z,4.20
2023-01-02T15:33:00.807Z,5.18
2023-01-02T15:35:34.342Z,4.65
2023-01-02T15:38:00.893Z,5.03
2023-01-02T15:40:31.943Z,7.30
2023-01-02T15:43:28.594Z,4.28
2023-01-02T15:45:55.480Z,2.63
2023-01-02T15:48:23.779Z,4.53
2023-01-02T15:50:53.230Z,3.38
2023-01-02T15:53:27.370Z,2.42
2023-01-02T15:55:54.456Z,3.72
2023-01-02T15:58:25.385Z,2.58
2023-01-02T16:01:14.934Z,2.85
2023-01-02T16:04:01.832Z,3.53
2023-01-02T16:06:34.476Z,3.55
2023-01-02T16:09:03.938Z,4.45
2023-01-02T16:11:32.048Z,3.80
2023-01-02T16:14:19.269Z,4.68
2023-01-02T16:16:51.683Z,8.25
2023-01-02T16:19:43.767Z,5.28
2023-01-02T16:22:10.123Z,6.05
2023-01-02T16:24:43.524Z,6.22
2023-01-02T16:27:15.705Z,4.85
2023-01-02T16:29:43.696Z,3.35
2023-01-02T16:32:30.967Z,3.53
2023-01-02T16:35:17.160Z,2.90
2023-01-02T16:37:56.112Z,4.70
2023-01-02T16:41:01.379Z,3.92
2023-01-02T16:43:13.509Z,3.92
2023-01-02T16:45:39.975Z,4.90
2023-01-02T16:48:08.430Z,4.35
2023-01-02T16:50:41.051Z,3.78
2023-01-02T16:53:08.540Z,4.43
2023-01-02T16:55:34.974Z,5.00
2023-01-02T16:58:01.401Z,6.47
2023-01-02T17:00:27.884Z,3.60
2023-01-02T17:02:54.492Z,5.22
2023-01-02T17:05:42.448Z,5.82
2023-01-02T17:08:08.840Z,5.85
2023-01-02T17:10:35.211Z,4.85
2023-01-02T17:13:04.784Z,4.90
2023-01-02T17:15:32.298Z,4.82
2023-01-02T17:17:59.217Z,4.38
2023-01-02T17:20:27.324Z,4.40
2023-01-02T17:22:53.723Z,4.22
2023-01-02T17:25:20.296Z,4.57
2023-01-02T17:27:46.772Z,5.20
2023-01-02T17:30:15.012Z,4.05
2023-01-02T17:32:43.073Z,4.10
2023-01-02T17:35:10.792Z,4.22
2023-01-02T17:37:38.694Z,3.20
2023-01-02T17:40:07.143Z,3.95
2023-01-02T17:42:33.603Z,4.15
2023-01-02T17:45:00.055Z,3.20
2023-01-02T17:50:13.114Z,4.72
2023-01-02T17:52:39.618Z,3.97
2023-01-02T17:55:10.258Z,2.78
2023-01-02T17:57:38.931Z,2.88
2023-01-02T18:00:08.502Z,2.72
2023-01-02T18:02:35.282Z,4.32
2023-01-02T18:05:02.556Z,2.60
2023-01-02T18:07:29.026Z,3.85
2023-01-02T18:10:07.718Z,3.10
2023-01-02T18:12:37.797Z,2.88
2023-01-02T18:15:11.308Z,2.33
2023-01-02T18:17:37.906Z,2.50
2023-01-02T18:20:10.321Z,2.75
2023-01-02T18:22:39.929Z,4.63
2023-01-02T18:25:25.012Z,3.45
2023-01-02T18:27:53.137Z,3.00
2023-01-02T18:30:23.443Z,2.90
2023-01-02T18:32:57.175Z,2.95
2023-01-02T18:35:56.758Z,2.85
2023-01-02T18:38:31.660Z,3.55
2023-01-02T18:40:58.663Z,3.78
2023-01-02T18:43:39.291Z,2.47
2023-01-02T18:47:01.751Z,4.10
2023-01-02T18:49:26.911Z,4.50
2023-01-02T18:52:12.389Z,3.25
2023-01-02T18:54:44.507Z,2.92
2023-01-02T18:57:16.754Z,6.25
2023-01-02T18:59:46.159Z,2.38
2023-01-02T19:02:42.275Z,4.22
2023-01-02T19:05:30.561Z,2.83
2023-01-02T19:08:12.660Z,5.10
2023-01-02T19:10:42.934Z,2.78
2023-01-02T19:13:24.561Z,2.85
2023-01-02T19:16:04.108Z,3.35
2023-01-02T19:18:45.676Z,3.72
2023-01-02T19:21:18.105Z,3.30
2023-01-02T19:23:50.482Z,3.45
2023-01-02T19:26:23.808Z,3.47
2023-01-02T19:29:08.928Z,2.80
2023-01-02T19:32:03.817Z,2.67
2023-01-02T19:34:37.243Z,3.28
2023-01-02T19:37:12.432Z,2.40
2023-01-02T19:42:19.481Z,4.85
2023-01-02T19:45:21.121Z,3.08
2023-01-02T19:47:49.272Z,4.13
2023-01-02T19:50:20.124Z,3.22
2023-01-02T19:52:47.100Z,5.13
2023-01-02T19:55:13.963Z,2.97
2023-01-02T19:57:40.518Z,3.83
2023-01-02T20:00:12.621Z,1.92
2023-01-02T20:02:45.200Z,3.45
2023-01-02T20:05:14.731Z,3.08
2023-01-02T20:07:44.590Z,3.97
2023-01-02T20:10:12.071Z,5.78
2023-01-02T20:12:41.450Z,3.65
2023-01-02T20:15:20.740Z,3.63
2023-01-02T20:17:47.516Z,3.58
2023-01-02T20:20:16.657Z,3.65
2023-01-02T20:22:43.718Z,4.35
2023-01-02T20:25:12.033Z,4.18
2023-01-02T20:27:38.540Z,5.00
2023-01-02T20:30:06.999Z,4.25
2023-01-02T20:32:33.389Z,3.08
2023-01-02T20:34:59.829Z,3.08
2023-01-02T20:37:26.550Z,5.10
2023-01-02T20:39:53.987Z,4.43
2023-01-02T20:42:21.411Z,4.28
2023-01-02T20:44:48.731Z,5.63
2023-01-02T20:47:15.220Z,6.95
2023-01-02T20:49:42.304Z,4.45
2023-01-02T20:52:08.968Z,3.95
2023-01-02T20:54:35.751Z,4.30
2023-01-02T20:57:05.339Z,6.13
2023-01-02T20:59:31.960Z,2.63
2023-01-02T21:01:58.645Z,3.47
2023-01-02T21:04:34.227Z,4.78
2023-01-02T21:07:03.505Z,3.85
2023-01-02T21:09:30.125Z,5.97
2023-01-02T21:11:56.485Z,2.65
2023-01-02T21:14:22.957Z,3.75
2023-01-02T21:16:49.460Z,2.55
2023-01-02T21:19:16.084Z,2.67
2023-01-02T21:21:42.492Z,5.70
2023-01-02T21:24:08.966Z,2.97
2023-01-02T21:26:35.415Z,2.03
2023-01-02T21:29:03.009Z,5.50
2023-01-02T21:31:29.760Z,3.03
2023-01-02T21:33:56.352Z,2.72
2023-01-02T21:36:25.691Z,9.27
2023-01-02T21:38:52.192Z,10.20
2023-01-02T21:41:37.533Z,3.25
2023-01-02T21:44:04.020Z,3.88
2023-01-02T21:46:30.480Z,3.17
2023-01-02T21:48:56.995Z,1.95
2023-01-02T21:51:26.487Z,6.07
2023-01-02T21:53:57.155Z,2.10
2023-01-02T21:56:23.529Z,5.45
2023-01-02T21:58:50.005Z,6.22
2023-01-02T22:01:16.586Z,1.88
2023-01-02T22:03:43.225Z,2.85
2023-01-02T22:06:10.254Z,3.00
2023-01-02T22:08:36.706Z,3.63
2023-01-02T22:11:21.547Z,3.08
2023-01-02T22:13:47.951Z,2.75
2023-01-02T22:16:14.726Z,4.20
2023-01-02T22:18:41.105Z,3.70
2023-01-02T22:21:07.463Z,3.53
2023-01-02T22:23:33.850Z,2.20
2023-01-02T22:26:00.316Z,4.95
2023-01-02T22:28:26.721Z,4.28
2023-01-02T22:30:53.178Z,5.65
2023-01-02T22:33:19.570Z,7.55
2023-01-02T22:35:45.957Z,3.45
2023-01-02T22:38:12.532Z,2.03
2023-01-02T22:40:39.105Z,2.95
2023-01-02T22:43:06.498Z,3.13
2023-01-02T22:45:44.932Z,5.13
2023-01-02T22:48:23.871Z,4.20
2023-01-02T22:50:52.919Z,2.05
2023-01-02T22:53:39.346Z,2.80
2023-01-02T22:56:18.182Z,3.58
2023-01-02T22:58:45.077Z,3.15
2023-01-02T23:01:24.263Z,5.22
2023-01-02T23:03:51.208Z,5.05
2023-01-02T23:06:22.170Z,2.72
2023-01-02T23:08:49.552Z,4.28
2023-01-02T23:11:15.943Z,3.47
2023-01-02T23:13:43.190Z,3.33
2023-01-02T23:16:28.227Z,3.08
2023-01-02T23:19:12.992Z,3.05
2023-01-02T23:21:40.160Z,4.20
2023-01-02T23:24:06.942Z,3.63
2023-01-02T23:26:37.401Z,4.63
2023-01-02T23:29:06.950Z,4.38
2023-01-02T23:31:39.374Z,3.22
2023-01-02T23:34:06.247Z,2.60
2023-01-02T23:36:33.005Z,7.38
2023-01-02T23:38:59.495Z,2.17
2023-01-02T23:41:26.092Z,6.00
2023-01-02T23:43:52.592Z,3.17
2023-01-02T23:46:19.046Z,5.75
2023-01-02T23:48:45.466Z,3.78
2023-01-02T23:51:11.883Z,4.68
2023-01-02T23:53:38.274Z,2.22
2023-01-02T23:56:15.450Z,5.25
2023-01-02T23:58:41.777Z,3.58
